createdAt,value
2022-10-25T00:01:20.117Z,65.00
2022-10-25T00:03:47.429Z,65.10
2022-10-25T00:06:14.453Z,65.10
2022-10-25T00:08:41.847Z,65.20
2022-10-25T00:11:15.793Z,65.20
2022-10-25T00:13:49.340Z,65.30
2022-10-25T00:16:18.290Z,65.30
2022-10-25T00:18:46.099Z,65.30
2022-10-25T00:21:13.502Z,65.30
2022-10-25T00:23:40.566Z,65.10
2022-10-25T00:26:09.746Z,65.30
2022-10-25T00:28:37.250Z,65.50
2022-10-25T00:31:07.377Z,65.40
2022-10-25T00:33:35.636Z,65.60
2022-10-25T00:36:13.632Z,65.60
2022-10-25T00:38:41.574Z,65.60
2022-10-25T00:41:10.365Z,65.60
2022-10-25T00:43:44.006Z,65.70
2022-10-25T00:46:24.086Z,65.90
2022-10-25T00:49:15.824Z,65.80
2022-10-25T00:52:05.287Z,66.00
2022-10-25T00:54:39.230Z,66.10
2022-10-25T00:57:15.684Z,66.00
2022-10-25T00:59:44.581Z,66.20
2022-10-25T01:02:12.202Z,66.20
2022-10-25T01:04:39.416Z,66.40
2022-10-25T01:07:06.684Z,66.30
2022-10-25T01:09:36.722Z,66.60
2022-10-25T01:12:04.930Z,66.80
2022-10-25T01:14:41.047Z,67.00
2022-10-25T01:17:55.824Z,67.00
2022-10-25T01:20:46.772Z,67.30
2022-10-25T01:23:35.611Z,67.40
2022-10-25T01:26:09.031Z,67.30
2022-10-25T01:28:58.092Z,67.40
2022-10-25T01:31:44.268Z,67.60
2022-10-25T01:34:14.159Z,67.50
2022-10-25T01:37:05.807Z,67.40
2022-10-25T01:39:45.423Z,67.40
2022-10-25T01:42:27.557Z,67.50
2022-10-25T01:45:16.505Z,67.70
2022-10-25T01:47:49.509Z,67.70
2022-10-25T01:50:21.754Z,67.60
2022-10-25T01:52:49.327Z,67.60
2022-10-25T01:55:18.001Z,67.50
2022-10-25T01:58:10.102Z,67.40
2022-10-25T02:00:59.191Z,67.30
2022-10-25T02:03:33.251Z,67.20
2022-10-25T02:06:12.619Z,67.10
2022-10-25T02:08:49.120Z,67.00
2022-10-25T02:11:33.886Z,66.90
2022-10-25T02:14:15.946Z,66.90
2022-10-25T02:17:00.620Z,66.90
2022-10-25T02:19:34.966Z,67.80
2022-10-25T02:22:04.258Z,66.90
2022-10-25T02:24:32.898Z,66.90
2022-10-25T02:27:02.086Z,67.00
2022-10-25T02:29:31.818Z,67.10
2022-10-25T02:31:59.351Z,67.20
2022-10-25T02:34:26.219Z,67.30
2022-10-25T02:36:54.392Z,67.20
2022-10-25T02:39:26.513Z,67.10
2022-10-25T02:41:56.633Z,67.40
2022-10-25T02:44:23.878Z,67.00
2022-10-25T02:46:50.822Z,66.90
2022-10-25T02:49:17.868Z,66.80
2022-10-25T02:51:44.867Z,66.70
2022-10-25T02:54:12.390Z,66.70
2022-10-25T02:56:39.298Z,66.70
2022-10-25T02:59:06.736Z,66.70
2022-10-25T03:01:34.039Z,66.70
2022-10-25T03:04:01.078Z,66.90
2022-10-25T03:06:28.370Z,66.80
2022-10-25T03:08:58.386Z,66.80
2022-10-25T03:11:26.042Z,66.90
2022-10-25T03:13:53.192Z,67.00
2022-10-25T03:16:20.187Z,67.00
2022-10-25T03:18:47.190Z,67.20
2022-10-25T03:21:14.413Z,67.20
2022-10-25T03:23:41.627Z,67.40
2022-10-25T03:26:08.764Z,67.50
2022-10-25T03:28:35.750Z,67.50
2022-10-25T03:31:02.643Z,67.60
2022-10-25T03:35:57.248Z,67.80
2022-10-25T03:38:24.297Z,67.80
2022-10-25T03:40:51.448Z,67.90
2022-10-25T03:43:18.849Z,67.80
2022-10-25T03:45:46.021Z,67.80
2022-10-25T03:48:13.330Z,67.70
2022-10-25T03:50:40.783Z,67.70
2022-10-25T03:55:36.579Z,67.40
2022-10-25T03:58:03.762Z,67.40
2022-10-25T04:00:31.045Z,67.30
2022-10-25T04:03:03.127Z,67.30
2022-10-25T04:05:31.975Z,67.20
2022-10-25T04:07:59.686Z,67.20
2022-10-25T04:10:27.309Z,67.10
2022-10-25T04:12:55.036Z,67.10
2022-10-25T04:15:22.996Z,67.10
2022-10-25T04:17:51.729Z,67.10
2022-10-25T04:20:19.191Z,67.10
2022-10-25T04:22:46.146Z,67.20
2022-10-25T04:25:13.310Z,67.10
2022-10-25T04:27:40.226Z,67.20
2022-10-25T04:30:07.678Z,67.10
2022-10-25T04:32:34.725Z,67.00
2022-10-25T04:35:02.192Z,67.10
2022-10-25T04:37:29.315Z,67.30
2022-10-25T04:39:56.229Z,67.40
2022-10-25T04:42:23.102Z,67.50
2022-10-25T04:44:50.118Z,67.40
2022-10-25T04:47:17.529Z,67.50
2022-10-25T04:49:44.664Z,67.60
2022-10-25T04:52:11.580Z,67.50
2022-10-25T04:54:39.084Z,67.50
2022-10-25T04:57:07.283Z,67.50
2022-10-25T04:59:34.199Z,67.50
2022-10-25T05:02:01.202Z,67.50
2022-10-25T05:04:28.602Z,67.50
2022-10-25T05:06:55.721Z,67.50
2022-10-25T05:09:22.704Z,67.50
2022-10-25T05:11:50.097Z,67.50
2022-10-25T05:14:17.175Z,67.50
2022-10-25T05:16:44.175Z,67.40
2022-10-25T05:19:11.292Z,67.50
2022-10-25T05:21:38.318Z,67.40
2022-10-25T05:24:06.134Z,67.50
2022-10-25T05:26:33.478Z,67.40
2022-10-25T05:29:01.914Z,67.40
2022-10-25T05:31:30.974Z,67.30
2022-10-25T05:34:00.508Z,67.30
2022-10-25T05:36:32.985Z,67.40
2022-10-25T05:39:01.294Z,67.30
2022-10-25T05:41:31.871Z,67.40
2022-10-25T05:44:02.249Z,67.30
2022-10-25T05:46:29.758Z,67.30
2022-10-25T05:48:59.193Z,67.30
2022-10-25T05:51:33.254Z,67.30
2022-10-25T05:54:07.635Z,67.30
2022-10-25T05:56:35.546Z,67.30
2022-10-25T05:59:08.754Z,67.30
2022-10-25T06:01:40.576Z,67.30
2022-10-25T06:04:09.956Z,68.10
2022-10-25T06:06:38.676Z,67.30
2022-10-25T06:09:06.958Z,67.20
2022-10-25T06:11:34.727Z,67.20
2022-10-25T06:14:01.875Z,67.20
2022-10-25T06:16:29.373Z,67.20
2022-10-25T06:18:56.471Z,67.20
2022-10-25T06:21:28.934Z,67.00
2022-10-25T06:23:57.974Z,67.00
2022-10-25T06:26:27.198Z,66.90
2022-10-25T06:28:56.518Z,66.90
2022-10-25T06:31:24.342Z,67.00
2022-10-25T06:33:51.561Z,67.30
2022-10-25T06:36:23.962Z,68.10
2022-10-25T06:38:51.549Z,68.00
2022-10-25T06:41:24.685Z,67.10
2022-10-25T06:43:52.209Z,66.40
2022-10-25T06:46:30.262Z,65.70
2022-10-25T06:48:59.910Z,64.70
2022-10-25T06:51:29.883Z,62.60
2022-10-25T06:53:57.713Z,61.90
2022-10-25T06:56:26.646Z,61.50
2022-10-25T06:58:54.663Z,59.70
2022-10-25T07:01:23.270Z,58.50
2022-10-25T07:03:51.134Z,57.70
2022-10-25T07:06:22.640Z,57.60
2022-10-25T07:08:53.747Z,58.10
2022-10-25T07:11:21.258Z,57.00
2022-10-25T07:13:48.349Z,56.50
2022-10-25T07:16:17.392Z,55.80
2022-10-25T07:18:44.922Z,55.80
2022-10-25T07:21:18.864Z,56.10
2022-10-25T07:23:47.202Z,56.60
2022-10-25T07:26:26.652Z,56.60
2022-10-25T07:28:56.225Z,57.30
2022-10-25T07:31:35.309Z,57.70
2022-10-25T07:34:04.342Z,58.00
2022-10-25T07:36:31.743Z,57.90
2022-10-25T07:38:58.859Z,57.60
2022-10-25T07:41:26.835Z,56.90
2022-10-25T07:43:55.552Z,56.50
2022-10-25T07:46:23.051Z,56.30
2022-10-25T07:48:50.131Z,55.90
2022-10-25T07:51:18.442Z,55.60
2022-10-25T07:53:45.475Z,55.90
2022-10-25T07:56:20.391Z,56.10
2022-10-25T07:58:51.309Z,56.40
2022-10-25T08:01:22.294Z,56.40
2022-10-25T08:03:51.653Z,56.90
2022-10-25T08:06:19.950Z,57.60
2022-10-25T08:08:47.491Z,57.60
2022-10-25T08:11:15.505Z,58.10
2022-10-25T08:13:42.829Z,57.90
2022-10-25T08:16:09.836Z,57.30
2022-10-25T08:18:36.778Z,57.50
2022-10-25T08:21:04.715Z,57.00
2022-10-25T08:23:32.957Z,56.80
2022-10-25T08:26:01.286Z,56.50
2022-10-25T08:28:31.415Z,56.10
2022-10-25T08:31:00.840Z,55.80
2022-10-25T08:33:28.796Z,56.10
2022-10-25T08:35:56.029Z,56.40
2022-10-25T08:38:23.157Z,56.50
2022-10-25T08:40:56.243Z,56.80
2022-10-25T08:43:44.823Z,57.10
2022-10-25T08:46:20.853Z,57.30
2022-10-25T08:49:10.799Z,57.60
2022-10-25T08:51:40.501Z,58.10
2022-10-25T08:54:30.986Z,58.20
2022-10-25T08:57:17.883Z,58.40
2022-10-25T08:59:50.244Z,58.60
2022-10-25T09:02:53.120Z,58.70
2022-10-25T09:05:41.001Z,58.60
2022-10-25T09:08:20.641Z,58.70
2022-10-25T09:11:10.606Z,58.00
2022-10-25T09:13:41.008Z,57.80
2022-10-25T09:16:15.383Z,57.60
2022-10-25T09:18:55.830Z,57.60
2022-10-25T09:21:55.117Z,57.50
2022-10-25T09:24:44.547Z,57.20
2022-10-25T09:27:22.130Z,57.50
2022-10-25T09:30:03.797Z,57.40
2022-10-25T09:32:42.255Z,57.60
2022-10-25T09:35:26.555Z,57.80
2022-10-25T09:37:58.688Z,57.50
2022-10-25T09:40:30.793Z,57.80
2022-10-25T09:43:17.301Z,57.80
2022-10-25T09:45:57.521Z,58.00
2022-10-25T09:48:43.880Z,58.40
2022-10-25T09:51:38.901Z,58.60
2022-10-25T09:54:17.728Z,59.20
2022-10-25T09:56:44.829Z,59.70
2022-10-25T09:59:15.724Z,59.70
2022-10-25T10:01:43.496Z,60.00
2022-10-25T10:04:26.755Z,60.30
2022-10-25T10:07:15.554Z,60.70
2022-10-25T10:09:46.165Z,61.20
2022-10-25T10:12:22.242Z,61.30
2022-10-25T10:14:57.189Z,61.00
2022-10-25T10:17:25.352Z,61.20
2022-10-25T10:20:10.488Z,61.20
2022-10-25T10:22:45.420Z,60.60
2022-10-25T10:25:18.599Z,60.00
2022-10-25T10:27:47.963Z,59.70
2022-10-25T10:30:30.290Z,59.40
2022-10-25T10:33:00.865Z,59.30
2022-10-25T10:35:36.156Z,59.20
2022-10-25T10:38:24.004Z,59.20
2022-10-25T10:40:54.314Z,59.40
2022-10-25T10:43:30.979Z,59.50
2022-10-25T10:46:09.017Z,59.40
2022-10-25T10:48:43.095Z,59.20
2022-10-25T10:51:43.077Z,59.40
2022-10-25T10:54:28.065Z,59.50
2022-10-25T10:57:01.288Z,59.80
2022-10-25T10:59:34.153Z,59.20
2022-10-25T11:02:20.288Z,59.40
2022-10-25T11:04:53.461Z,59.60
2022-10-25T11:07:35.850Z,59.70
2022-10-25T11:10:34.439Z,59.70
2022-10-25T11:13:11.359Z,59.40
2022-10-25T11:16:09.489Z,59.40
2022-10-25T11:18:52.403Z,59.20
2022-10-25T11:21:37.776Z,58.90
2022-10-25T11:24:10.663Z,59.10
2022-10-25T11:27:16.242Z,59.20
2022-10-25T11:30:10.977Z,59.10
2022-10-25T11:33:01.616Z,58.90
2022-10-25T11:36:04.029Z,59.10
2022-10-25T11:38:55.717Z,59.00
2022-10-25T11:41:48.394Z,59.00
2022-10-25T11:44:46.419Z,59.10
2022-10-25T11:47:44.102Z,59.30
2022-10-25T11:50:34.385Z,60.10
2022-10-25T11:53:35.286Z,60.60
2022-10-25T11:56:16.941Z,60.00
2022-10-25T11:58:46.981Z,59.70
2022-10-25T12:01:33.357Z,59.60
2022-10-25T12:04:29.539Z,59.00
2022-10-25T12:07:09.184Z,58.60
2022-10-25T12:10:03.362Z,58.50
2022-10-25T12:12:45.638Z,58.40
2022-10-25T12:15:22.515Z,58.40
2022-10-25T12:17:51.268Z,58.10
2022-10-25T12:20:26.508Z,57.30
2022-10-25T12:22:57.163Z,57.90
2022-10-25T12:25:33.287Z,59.40
2022-10-25T12:28:11.102Z,60.20
2022-10-25T12:30:41.128Z,60.70
2022-10-25T12:33:11.020Z,60.90
2022-10-25T12:35:47.489Z,60.70
2022-10-25T12:38:33.438Z,60.60
2022-10-25T12:41:03.649Z,61.10
2022-10-25T12:43:49.977Z,61.80
2022-10-25T12:46:50.333Z,61.10
2022-10-25T12:49:59.453Z,61.00
2022-10-25T12:53:12.726Z,61.50
2022-10-25T12:56:00.057Z,62.40
2022-10-25T12:58:36.011Z,62.30
2022-10-25T13:01:37.190Z,62.70
2022-10-25T13:04:22.927Z,63.10
2022-10-25T13:07:05.599Z,63.00
2022-10-25T13:09:35.020Z,62.80
2022-10-25T13:12:06.772Z,62.60
2022-10-25T13:14:43.492Z,62.70
2022-10-25T13:17:40.047Z,62.50
2022-10-25T13:22:46.720Z,63.20
2022-10-25T13:25:13.741Z,62.90
2022-10-25T13:28:15.982Z,63.30
2022-10-25T13:30:44.174Z,62.90
2022-10-25T13:33:24.649Z,62.80
2022-10-25T13:35:51.805Z,62.70
2022-10-25T13:38:38.861Z,63.10
2022-10-25T13:41:06.511Z,63.30
2022-10-25T13:43:35.411Z,62.90
2022-10-25T13:46:03.667Z,62.70
2022-10-25T13:48:33.443Z,62.60
2022-10-25T13:51:08.124Z,62.30
2022-10-25T13:53:54.454Z,62.00
2022-10-25T13:56:25.125Z,61.80
2022-10-25T13:58:53.737Z,61.70
2022-10-25T14:01:21.531Z,61.70
2022-10-25T14:04:32.652Z,61.40
2022-10-25T14:07:40.232Z,61.30
2022-10-25T14:10:15.365Z,61.50
2022-10-25T14:12:48.866Z,61.50
2022-10-25T14:15:26.249Z,61.20
2022-10-25T14:17:53.731Z,61.00
2022-10-25T14:20:32.668Z,60.80
2022-10-25T14:23:02.738Z,60.80
2022-10-25T14:25:49.039Z,61.10
2022-10-25T14:28:27.915Z,60.90
2022-10-25T14:31:02.328Z,60.90
2022-10-25T14:33:37.902Z,60.80
2022-10-25T14:36:24.361Z,60.60
2022-10-25T14:39:02.141Z,60.50
2022-10-25T14:41:32.368Z,60.40
2022-10-25T14:44:00.036Z,60.10
2022-10-25T14:46:30.206Z,60.10
2022-10-25T14:48:58.799Z,60.00
2022-10-25T14:51:35.909Z,60.10
2022-10-25T14:54:06.549Z,60.10
2022-10-25T14:56:41.548Z,60.00
2022-10-25T14:59:20.605Z,60.10
2022-10-25T15:02:22.894Z,60.20
2022-10-25T15:04:52.285Z,60.30
2022-10-25T15:07:51.500Z,60.40
2022-10-25T15:10:30.763Z,60.50
2022-10-25T15:13:20.791Z,60.40
2022-10-25T15:15:52.142Z,60.50
2022-10-25T15:18:31.720Z,60.40
2022-10-25T15:21:18.633Z,60.40
2022-10-25T15:24:22.092Z,60.50
2022-10-25T15:26:58.796Z,60.40
2022-10-25T15:32:15.609Z,60.20
2022-10-25T15:34:44.686Z,60.20
2022-10-25T15:37:13.700Z,60.20
2022-10-25T15:42:10.470Z,60.30
2022-10-25T15:44:41.447Z,60.50
2022-10-25T15:47:27.942Z,60.70
2022-10-25T15:49:55.502Z,60.90
2022-10-25T15:52:25.265Z,61.00
2022-10-25T15:54:52.733Z,61.10
2022-10-25T15:57:20.786Z,61.20
2022-10-25T15:59:47.831Z,61.40
2022-10-25T16:02:27.146Z,61.50
2022-10-25T16:04:54.727Z,62.50
2022-10-25T16:07:26.291Z,61.70
2022-10-25T16:09:54.983Z,61.80
2022-10-25T16:12:31.794Z,62.00
2022-10-25T16:14:58.858Z,61.90
2022-10-25T16:17:25.920Z,62.00
2022-10-25T16:19:52.907Z,61.90
2022-10-25T16:22:19.989Z,62.00
2022-10-25T16:24:47.507Z,62.20
2022-10-25T16:27:15.414Z,62.30
2022-10-25T16:29:43.147Z,62.30
2022-10-25T16:32:10.144Z,62.40
2022-10-25T16:34:37.867Z,62.60
2022-10-25T16:37:07.794Z,62.60
2022-10-25T16:39:38.500Z,62.50
2022-10-25T16:42:24.829Z,62.80
2022-10-25T16:44:51.823Z,62.90
2022-10-25T16:47:21.407Z,62.90
2022-10-25T16:49:51.768Z,62.80
2022-10-25T16:52:19.156Z,63.00
2022-10-25T16:54:47.129Z,62.90
2022-10-25T16:57:14.639Z,62.90
2022-10-25T16:59:41.618Z,62.80
2022-10-25T17:02:23.032Z,62.90
2022-10-25T17:04:50.974Z,63.00
2022-10-25T17:07:18.531Z,62.80
2022-10-25T17:09:46.003Z,63.10
2022-10-25T17:12:13.114Z,63.10
2022-10-25T17:14:40.644Z,63.20
2022-10-25T17:17:08.270Z,63.30
2022-10-25T17:19:36.059Z,63.40
2022-10-25T17:22:03.017Z,63.40
2022-10-25T17:24:33.351Z,63.30
2022-10-25T17:27:00.718Z,63.20
2022-10-25T17:29:27.780Z,63.20
2022-10-25T17:31:56.077Z,63.10
2022-10-25T17:34:25.097Z,63.10
2022-10-25T17:36:53.872Z,63.10
2022-10-25T17:39:20.883Z,63.00
2022-10-25T17:41:48.130Z,62.90
2022-10-25T17:44:15.272Z,62.90
2022-10-25T17:49:09.823Z,62.80
2022-10-25T17:51:37.831Z,62.70
2022-10-25T17:54:04.774Z,62.80
2022-10-25T17:58:59.431Z,62.70
2022-10-25T18:01:28.679Z,62.60
2022-10-25T18:03:55.924Z,62.60
2022-10-25T18:06:25.494Z,62.50
2022-10-25T18:08:59.084Z,62.50
2022-10-25T18:11:28.456Z,62.50
2022-10-25T18:14:04.000Z,62.50
2022-10-25T18:16:33.500Z,62.50
2022-10-25T18:19:02.494Z,62.40
2022-10-25T18:21:30.146Z,62.40
2022-10-25T18:23:59.136Z,62.40
2022-10-25T18:26:26.689Z,62.20
2022-10-25T18:28:54.258Z,62.20
2022-10-25T18:31:21.636Z,62.40
2022-10-25T18:33:48.884Z,62.30
2022-10-25T18:36:19.385Z,62.30
2022-10-25T18:38:51.875Z,62.30
2022-10-25T18:41:25.198Z,62.40
2022-10-25T18:43:55.069Z,62.30
2022-10-25T18:46:23.370Z,62.40
2022-10-25T18:48:51.700Z,62.30
2022-10-25T18:51:19.575Z,62.50
2022-10-25T18:53:46.854Z,62.30
2022-10-25T18:56:19.567Z,62.50
2022-10-25T18:58:49.390Z,62.40
2022-10-25T19:01:20.599Z,62.50
2022-10-25T19:03:48.501Z,62.50
2022-10-25T19:06:16.345Z,62.70
2022-10-25T19:08:45.160Z,62.90
2022-10-25T19:11:13.624Z,62.90
2022-10-25T19:13:41.359Z,63.10
2022-10-25T19:16:09.662Z,63.20
2022-10-25T19:18:37.521Z,63.40
2022-10-25T19:21:12.856Z,63.50
2022-10-25T19:23:42.723Z,63.60
2022-10-25T19:26:12.028Z,63.70
2022-10-25T19:28:39.607Z,63.70
2022-10-25T19:31:07.856Z,63.70
2022-10-25T19:33:35.964Z,63.70
2022-10-25T19:36:08.699Z,63.90
2022-10-25T19:38:37.172Z,63.90
2022-10-25T19:41:06.458Z,63.90
2022-10-25T19:43:34.573Z,63.80
2022-10-25T19:46:04.807Z,63.80
2022-10-25T19:48:32.748Z,63.80
2022-10-25T19:51:11.674Z,63.70
2022-10-25T19:53:39.359Z,63.60
2022-10-25T19:56:20.777Z,63.60
2022-10-25T19:58:48.765Z,63.60
2022-10-25T20:01:18.649Z,63.50
2022-10-25T20:03:49.734Z,63.50
2022-10-25T20:06:23.345Z,63.50
2022-10-25T20:08:53.079Z,63.40
2022-10-25T20:11:20.540Z,63.50
2022-10-25T20:13:47.938Z,63.50
2022-10-25T20:16:15.462Z,63.50
2022-10-25T20:18:43.219Z,63.60
2022-10-25T20:21:17.070Z,63.60
2022-10-25T20:23:49.400Z,63.60
2022-10-25T20:26:24.953Z,63.60
2022-10-25T20:28:57.157Z,63.60
2022-10-25T20:31:25.163Z,63.90
2022-10-25T20:33:53.472Z,64.30
2022-10-25T20:36:21.201Z,64.50
2022-10-25T20:38:48.727Z,64.80
2022-10-25T20:41:17.037Z,65.00
2022-10-25T20:43:53.515Z,65.20
2022-10-25T20:46:22.479Z,65.10
2022-10-25T20:48:49.746Z,65.10
2022-10-25T20:51:17.324Z,65.20
2022-10-25T20:53:45.835Z,65.10
2022-10-25T20:56:13.583Z,65.20
2022-10-25T20:58:41.166Z,65.10
2022-10-25T21:01:08.856Z,65.10
2022-10-25T21:03:36.789Z,65.10
2022-10-25T21:06:06.125Z,66.00
2022-10-25T21:08:33.947Z,64.90
2022-10-25T21:11:04.496Z,64.80
2022-10-25T21:13:35.598Z,64.90
2022-10-25T21:16:11.719Z,64.90
2022-10-25T21:18:39.650Z,64.80
2022-10-25T21:21:09.402Z,64.70
2022-10-25T21:23:36.489Z,64.50
2022-10-25T21:26:06.215Z,64.40
2022-10-25T21:28:35.960Z,64.50
2022-10-25T21:31:09.581Z,64.40
2022-10-25T21:33:37.289Z,64.40
2022-10-25T21:36:09.437Z,64.30
2022-10-25T21:38:37.255Z,64.20
2022-10-25T21:41:07.781Z,64.20
2022-10-25T21:43:35.741Z,64.00
2022-10-25T21:46:07.441Z,64.00
2022-10-25T21:48:35.695Z,64.10
2022-10-25T21:51:03.284Z,64.30
2022-10-25T21:53:31.121Z,64.50
2022-10-25T21:56:10.444Z,64.40
2022-10-25T21:58:39.591Z,64.50
2022-10-25T22:01:15.367Z,65.60
2022-10-25T22:03:43.195Z,64.60
2022-10-25T22:06:12.527Z,64.60
2022-10-25T22:08:40.059Z,64.60
2022-10-25T22:11:11.555Z,64.60
2022-10-25T22:13:39.327Z,64.80
2022-10-25T22:16:13.292Z,64.60
2022-10-25T22:18:40.971Z,64.60
2022-10-25T22:21:11.757Z,64.30
2022-10-25T22:23:39.793Z,64.20
2022-10-25T22:26:09.642Z,64.10
2022-10-25T22:28:40.934Z,64.10
2022-10-25T22:31:11.916Z,64.00
2022-10-25T22:33:39.386Z,63.90
2022-10-25T22:36:17.439Z,64.00
2022-10-25T22:38:45.281Z,63.80
2022-10-25T22:41:17.418Z,64.00
2022-10-25T22:43:45.894Z,64.00
2022-10-25T22:46:20.309Z,63.80
2022-10-25T22:48:47.247Z,63.60
2022-10-25T22:51:14.966Z,63.50
2022-10-25T22:53:42.869Z,63.50
2022-10-25T22:56:15.830Z,63.60
2022-10-25T22:58:47.877Z,63.50
2022-10-25T23:01:21.058Z,63.40
2022-10-25T23:03:51.493Z,63.50
2022-10-25T23:06:21.682Z,63.60
2022-10-25T23:08:48.775Z,63.50
2022-10-25T23:11:21.237Z,63.40
2022-10-25T23:13:49.212Z,63.40
2022-10-25T23:16:17.347Z,63.60
2022-10-25T23:18:45.214Z,63.50
2022-10-25T23:21:17.457Z,63.60
2022-10-25T23:23:45.535Z,63.50
2022-10-25T23:26:24.460Z,63.60
2022-10-25T23:28:52.395Z,63.60
2022-10-25T23:31:20.379Z,63.60
2022-10-25T23:33:52.332Z,63.30
2022-10-25T23:36:21.659Z,63.40
2022-10-25T23:38:50.175Z,63.40
2022-10-25T23:41:17.988Z,63.50
2022-10-25T23:43:45.027Z,63.60
2022-10-25T23:46:12.610Z,63.60
2022-10-25T23:48:40.444Z,63.60
2022-10-25T23:51:10.109Z,63.50
2022-10-25T23:53:38.159Z,63.50
2022-10-25T23:56:07.021Z,63.50
2022-10-25T23:58:34.364Z,63.30
